createdAt,value
2022-07-31T00:03:14.164Z,21.49
2022-07-31T00:08:18.834Z,21.33
2022-07-31T00:13:57.798Z,21.33
2022-07-31T00:18:46.285Z,21.36
2022-07-31T00:23:50.664Z,21.34
2022-07-31T00:28:53.944Z,21.31
2022-07-31T00:33:56.910Z,21.24
2022-07-31T00:39:01.266Z,21.23
2022-07-31T00:44:04.408Z,21.18
2022-07-31T00:49:09.268Z,21.19
2022-07-31T00:54:22.648Z,21.21
2022-07-31T00:59:26.590Z,21.21
2022-07-31T01:04:31.228Z,21.20
2022-07-31T01:09:35.900Z,21.13
2022-07-31T01:14:42.971Z,21.02
2022-07-31T01:19:47.329Z,21.03
2022-07-31T01:25:04.979Z,20.90
2022-07-31T01:30:14.412Z,20.93
2022-07-31T01:35:21.878Z,20.91
2022-07-31T01:40:31.805Z,20.89
2022-07-31T01:45:40.007Z,20.90
2022-07-31T01:50:44.987Z,20.85
2022-07-31T01:56:02.671Z,20.80
2022-07-31T02:01:16.463Z,20.77
2022-07-31T02:06:21.955Z,20.72
2022-07-31T02:11:25.638Z,20.70
2022-07-31T02:16:30.840Z,20.64
2022-07-31T02:21:41.521Z,20.56
2022-07-31T02:26:45.374Z,20.46
2022-07-31T02:32:02.897Z,20.38
2022-07-31T02:37:09.264Z,20.35
2022-07-31T02:42:12.751Z,20.28
2022-07-31T02:47:18.269Z,20.26
2022-07-31T02:52:22.077Z,20.29
2022-07-31T02:57:25.728Z,20.26
2022-07-31T03:02:36.835Z,20.25
2022-07-31T03:07:41.741Z,20.22
2022-07-31T03:12:46.763Z,20.24
2022-07-31T03:17:51.663Z,20.21
2022-07-31T03:23:03.150Z,20.20
2022-07-31T03:28:07.734Z,20.16
2022-07-31T03:33:12.384Z,20.18
2022-07-31T03:38:34.964Z,20.15
2022-07-31T03:43:43.676Z,20.12
2022-07-31T03:48:53.390Z,20.09
2022-07-31T03:53:59.515Z,20.03
2022-07-31T03:59:27.396Z,20.02
2022-07-31T04:04:34.904Z,19.97
2022-07-31T04:09:39.938Z,19.96
2022-07-31T04:14:44.030Z,19.90
2022-07-31T04:19:49.910Z,19.81
2022-07-31T04:24:53.266Z,19.74
2022-07-31T04:30:03.081Z,19.65
2022-07-31T04:35:10.036Z,19.42
2022-07-31T04:40:13.746Z,19.26
2022-07-31T04:45:18.008Z,19.06
2022-07-31T04:50:22.514Z,18.99
2022-07-31T04:55:33.861Z,18.93
2022-07-31T05:00:37.047Z,18.85
2022-07-31T05:05:45.358Z,18.88
2022-07-31T05:11:06.509Z,18.96
2022-07-31T05:16:12.917Z,19.06
2022-07-31T05:21:18.270Z,19.26
2022-07-31T05:26:32.611Z,19.41
2022-07-31T05:31:35.695Z,19.51
2022-07-31T05:36:40.214Z,19.54
2022-07-31T05:41:44.695Z,19.63
2022-07-31T05:51:55.154Z,19.66
2022-07-31T05:56:58.141Z,19.71
2022-07-31T06:02:09.174Z,19.80
2022-07-31T06:07:33.857Z,19.81
2022-07-31T06:12:37.733Z,19.91
2022-07-31T06:17:44.397Z,20.03
2022-07-31T06:23:14.564Z,20.06
2022-07-31T06:28:49.288Z,20.19
2022-07-31T06:33:54.340Z,20.27
2022-07-31T06:39:02.597Z,20.30
2022-07-31T06:44:05.933Z,20.41
2022-07-31T06:49:27.509Z,20.51
2022-07-31T06:54:32.320Z,20.67
2022-07-31T06:59:40.493Z,20.80
2022-07-31T07:05:05.093Z,21.06
2022-07-31T07:10:09.708Z,21.37
2022-07-31T07:15:39.013Z,21.64
2022-07-31T07:20:42.382Z,21.71
2022-07-31T07:25:46.825Z,21.75
2022-07-31T07:30:51.636Z,21.95
2022-07-31T07:35:56.169Z,21.91
2022-07-31T07:41:01.074Z,21.95
2022-07-31T07:46:04.269Z,22.00
2022-07-31T07:51:07.906Z,22.05
2022-07-31T07:56:24.611Z,21.93
2022-07-31T08:01:48.131Z,21.95
2022-07-31T08:06:56.168Z,22.13
2022-07-31T08:12:05.768Z,22.16
2022-07-31T08:17:37.891Z,22.25
2022-07-31T08:22:41.883Z,22.32
2022-07-31T08:27:48.004Z,22.30
2022-07-31T08:32:52.087Z,22.18
2022-07-31T08:38:03.288Z,22.07
2022-07-31T08:44:00.168Z,21.99
2022-07-31T08:48:42.666Z,21.40
2022-07-31T08:53:46.703Z,21.51
2022-07-31T08:58:57.086Z,21.98
2022-07-31T09:04:00.488Z,22.25
2022-07-31T09:09:04.678Z,22.43
2022-07-31T09:14:10.735Z,22.57
2022-07-31T09:19:51.377Z,22.80
2022-07-31T09:24:53.459Z,22.81
2022-07-31T09:29:58.544Z,22.79
2022-07-31T09:35:21.804Z,23.05
2022-07-31T09:40:39.939Z,23.20
2022-07-31T09:46:43.108Z,23.33
2022-07-31T09:51:49.182Z,23.39
2022-07-31T09:56:56.681Z,23.47
2022-07-31T10:02:03.160Z,23.66
2022-07-31T10:07:07.207Z,23.81
2022-07-31T10:12:17.109Z,23.79
2022-07-31T10:17:26.303Z,23.69
2022-07-31T10:22:49.164Z,23.25
2022-07-31T10:27:58.228Z,22.52
2022-07-31T10:33:17.542Z,22.37
2022-07-31T10:39:02.919Z,22.82
2022-07-31T10:44:38.516Z,23.26
2022-07-31T10:50:21.887Z,23.35
2022-07-31T10:55:39.795Z,23.42
2022-07-31T11:01:08.854Z,23.67
2022-07-31T11:06:15.307Z,23.95
2022-07-31T11:11:41.626Z,24.27
2022-07-31T11:18:22.742Z,24.32
2022-07-31T11:23:03.324Z,24.52
2022-07-31T11:28:16.073Z,24.43
2022-07-31T11:33:30.453Z,24.29
2022-07-31T11:38:49.758Z,24.42
2022-07-31T11:43:54.435Z,24.34
2022-07-31T11:48:58.064Z,24.21
2022-07-31T11:54:02.457Z,24.18
2022-07-31T11:59:05.782Z,24.17
2022-07-31T12:04:09.374Z,24.38
2022-07-31T12:10:02.709Z,24.99
2022-07-31T12:14:38.912Z,25.59
2022-07-31T12:19:42.528Z,25.11
2022-07-31T12:24:48.562Z,25.24
2022-07-31T12:29:51.704Z,25.10
2022-07-31T12:35:03.775Z,25.51
2022-07-31T12:40:09.809Z,25.55
2022-07-31T12:45:19.791Z,25.67
2022-07-31T12:50:24.643Z,25.60
2022-07-31T12:55:30.762Z,25.26
2022-07-31T13:00:38.126Z,25.34
2022-07-31T13:05:43.010Z,25.50
2022-07-31T13:10:48.449Z,25.07
2022-07-31T13:15:52.091Z,24.86
2022-07-31T13:20:55.126Z,24.67
2022-07-31T13:26:00.806Z,24.75
2022-07-31T13:31:04.167Z,24.80
2022-07-31T13:36:07.403Z,25.04
2022-07-31T13:41:28.445Z,25.08
2022-07-31T13:46:32.316Z,25.19
2022-07-31T13:51:35.448Z,25.19
2022-07-31T13:56:43.515Z,24.80
2022-07-31T14:02:04.329Z,24.63
2022-07-31T14:07:09.326Z,23.92
2022-07-31T14:12:13.924Z,23.30
2022-07-31T14:17:18.409Z,23.47
2022-07-31T14:22:21.539Z,23.84
2022-07-31T14:27:26.034Z,24.12
2022-07-31T14:32:30.853Z,24.56
2022-07-31T14:37:34.041Z,24.50
2022-07-31T14:42:39.269Z,24.30
2022-07-31T14:47:42.458Z,24.18
2022-07-31T14:52:45.526Z,24.32
2022-07-31T14:57:51.813Z,23.87
2022-07-31T15:02:54.812Z,23.51
2022-07-31T15:07:58.117Z,23.39
2022-07-31T15:13:02.748Z,23.48
2022-07-31T15:18:06.287Z,23.53
2022-07-31T15:23:09.488Z,23.30
2022-07-31T15:28:14.102Z,22.93
2022-07-31T15:33:17.227Z,22.33
2022-07-31T15:38:20.352Z,22.19
2022-07-31T15:43:24.871Z,22.11
2022-07-31T15:48:28.173Z,21.92
2022-07-31T15:53:39.042Z,22.04
2022-07-31T15:58:43.849Z,21.94
2022-07-31T16:03:51.167Z,22.15
2022-07-31T16:08:56.551Z,22.32
2022-07-31T16:14:00.944Z,22.33
2022-07-31T16:19:04.221Z,22.30
2022-07-31T16:24:08.510Z,22.49
2022-07-31T16:29:17.491Z,22.77
2022-07-31T16:34:21.011Z,23.02
2022-07-31T16:39:24.008Z,23.14
2022-07-31T16:44:28.434Z,22.92
2022-07-31T16:49:36.338Z,22.87
2022-07-31T16:54:40.345Z,22.93
2022-07-31T16:59:56.926Z,23.07
2022-07-31T17:05:01.620Z,23.02
2022-07-31T17:10:05.176Z,23.02
2022-07-31T17:15:11.678Z,22.94
2022-07-31T17:20:15.171Z,22.81
2022-07-31T17:25:18.347Z,22.77
2022-07-31T17:30:22.869Z,22.69
2022-07-31T17:35:26.154Z,22.48
2022-07-31T17:40:42.919Z,22.47
2022-07-31T17:45:59.718Z,22.36
2022-07-31T17:51:10.381Z,22.34
2022-07-31T17:56:13.592Z,22.35
2022-07-31T18:01:18.168Z,22.29
2022-07-31T18:06:21.468Z,22.11
2022-07-31T18:11:26.232Z,22.03
2022-07-31T18:16:30.983Z,21.91
2022-07-31T18:21:34.172Z,21.79
2022-07-31T18:26:37.518Z,21.76
2022-07-31T18:31:42.036Z,21.77
2022-07-31T18:36:45.281Z,21.66
2022-07-31T18:41:49.171Z,21.60
2022-07-31T18:46:53.912Z,21.66
2022-07-31T18:51:56.977Z,21.58
2022-07-31T18:56:59.947Z,21.56
2022-07-31T19:02:04.771Z,21.49
2022-07-31T19:07:09.147Z,21.48
2022-07-31T19:12:13.976Z,21.41
2022-07-31T19:17:21.381Z,20.92
2022-07-31T19:22:24.797Z,20.70
2022-07-31T19:27:47.811Z,20.59
2022-07-31T19:32:52.204Z,20.70
2022-07-31T19:37:59.475Z,20.83
2022-07-31T19:43:02.730Z,20.90
2022-07-31T19:48:07.690Z,20.91
2022-07-31T19:53:10.788Z,20.99
2022-07-31T19:58:13.757Z,20.92
2022-07-31T20:03:18.768Z,21.00
2022-07-31T20:08:22.380Z,20.66
2022-07-31T20:13:25.601Z,20.55
2022-07-31T20:18:30.766Z,20.46
2022-07-31T20:23:34.658Z,20.35
2022-07-31T20:28:40.265Z,20.37
2022-07-31T20:33:56.851Z,20.41
2022-07-31T20:39:01.209Z,20.59
2022-07-31T20:44:04.221Z,20.69
2022-07-31T20:49:08.946Z,20.76
2022-07-31T20:54:34.634Z,20.76
2022-07-31T20:59:37.860Z,20.77
2022-07-31T21:04:43.227Z,20.79
2022-07-31T21:09:46.673Z,20.73
2022-07-31T21:14:49.799Z,20.70
2022-07-31T21:19:54.316Z,20.70
2022-07-31T21:24:58.011Z,20.72
2022-07-31T21:30:02.422Z,20.73
2022-07-31T21:35:09.602Z,20.73
2022-07-31T21:40:14.437Z,20.70
2022-07-31T21:45:18.604Z,20.63
2022-07-31T21:50:29.021Z,20.70
2022-07-31T21:55:32.402Z,20.73
2022-07-31T22:00:35.556Z,20.75
2022-07-31T22:05:57.803Z,20.79
2022-07-31T22:11:01.528Z,20.82
2022-07-31T22:16:04.919Z,20.79
2022-07-31T22:21:10.007Z,20.77
2022-07-31T22:26:13.556Z,20.78
2022-07-31T22:31:17.056Z,20.75
2022-07-31T22:36:21.871Z,20.85
2022-07-31T22:41:25.017Z,20.81
2022-07-31T22:46:28.913Z,20.78
2022-07-31T22:51:38.888Z,20.60
2022-07-31T22:56:42.771Z,20.50
2022-07-31T23:01:45.998Z,20.43
2022-07-31T23:06:50.612Z,20.39
2022-07-31T23:11:54.004Z,20.40
2022-07-31T23:16:57.217Z,20.39
2022-07-31T23:22:02.289Z,20.31
2022-07-31T23:27:08.391Z,20.24
2022-07-31T23:32:11.490Z,20.17
2022-07-31T23:37:15.866Z,20.11
2022-07-31T23:42:36.499Z,20.11
2022-07-31T23:47:45.623Z,20.08
2022-07-31T23:52:51.058Z,20.02
2022-07-31T23:57:53.981Z,19.97
